Dolomite, AL (35061)

5:30 AM CDT on September 03, 2015 (GMT -0500)
Bluff Park | | Change Station
CLOSE
Current Station
Personal Weather Station
Location: Hoover, AL
Elevation: 1026 ft
Nearby Weather Stations

Elev 1026 ft 33.39 °N, 86.85 °W | Updated 1 second ago

Overcast
Overcast
73.0 °F
Feels Like 73.0 °F
N
0.0
Wind Variable Wind from WNW
Gusts 0.0 mph

Today
High -- | Low -- °F
--% Chance of Precip.
Yesterday
High -- | Low -- °F
Precip. -- in
6:23 AM 7:10 PM
Waning Gibbous, 71% visible
Pressure 30.00 in
Visibility 7.0 miles
Clouds Overcast 11000 ft
Dew Point 72 °F
Humidity 95%
Rainfall 0.00 in
Snow Depth Not available.
UV 0 out of 12
Pollen 9.10 out of 12
Air Quality Not available.
Flu Activity Not available.
METAR KBHM 030953Z 00000KT 7SM OVC110 24/23 A3002 RMK AO2 DZE0858RAB0858E02 SLP158 P0000 T02440233
Pressure 30.00 in
Visibility 7.0 miles
Clouds Overcast 11000 ft
Dew Point 72 °F
Humidity 95%
Rainfall 0.00 in
Snow Depth Not available.
UV 0 out of 12
Pollen 9.10 out of 12
Air Quality Not available.
Flu Activity Not available.
METAR KBHM 030953Z 00000KT 7SM OVC110 24/23 A3002 RMK AO2 DZE0858RAB0858E02 SLP158 P0000 T02440233

10-Day Weather Forecast

×

Almanac

Astronomy

Sep. 03, 2015 Rise Set
Actual Time
Civil Twilight
Nautical Twilight
Astronomical Twilight
Moon
Length of Visible Light
Length of Day
Tomorrow will be .
, % of the Moon is Illuminated

Today's Extremes

State Highs State Lows

Community

WunderPhotos

Upload Photos

1,851,933 photos uploaded!

WunderBlogs® & News

Nearby

Air Quality

  Air Quality AQ Index Pollutant
Not available.

Snow Depth

Station Depth Elevation

Earthquake Activity

City Distance Mag. Time & Date
Minimum magnitude displayed is 2.5.

Coastal Water Temperatures

Place Temperature

Stations

Nearby Weather Stations

Station Location Temp. Windchill Dew Point Humidity Wind Precip. Elev Updated Type